createdAt,value
2022-08-27T00:00:46.662Z,17.47
2022-08-27T00:03:13.208Z,17.59
2022-08-27T00:05:40.758Z,17.80
2022-08-27T00:08:09.495Z,17.73
2022-08-27T00:10:36.014Z,17.24
2022-08-27T00:13:02.421Z,16.59
2022-08-27T00:15:29.576Z,17.41
2022-08-27T00:17:56.032Z,17.34
2022-08-27T00:20:25.886Z,17.63
2022-08-27T00:22:53.197Z,17.23
2022-08-27T00:25:20.793Z,17.35
2022-08-27T00:27:47.177Z,17.55
2022-08-27T00:30:16.188Z,17.63
2022-08-27T00:32:43.318Z,17.65
2022-08-27T00:35:10.093Z,17.51
2022-08-27T00:37:36.869Z,17.34
2022-08-27T00:40:09.630Z,17.59
2022-08-27T00:42:36.092Z,17.29
2022-08-27T00:45:05.952Z,17.52
2022-08-27T00:47:40.580Z,17.51
2022-08-27T00:50:14.441Z,16.80
2022-08-27T00:53:03.053Z,17.45
2022-08-27T00:55:37.637Z,17.12
2022-08-27T00:58:16.282Z,17.43
2022-08-27T01:00:44.928Z,17.06
2022-08-27T01:03:12.145Z,16.54
2022-08-27T01:05:39.149Z,17.39
2022-08-27T01:08:13.729Z,17.12
2022-08-27T01:10:41.929Z,17.38
2022-08-27T01:13:10.294Z,16.65
2022-08-27T01:15:41.049Z,17.41
2022-08-27T01:18:12.223Z,17.44
2022-08-27T01:21:04.373Z,17.33
2022-08-27T01:23:52.332Z,16.88
2022-08-27T01:26:18.841Z,17.18
2022-08-27T01:28:45.820Z,17.02
2022-08-27T01:31:13.112Z,17.16
2022-08-27T01:33:39.763Z,16.88
2022-08-27T01:36:06.900Z,17.22
2022-08-27T01:38:34.330Z,17.05
2022-08-27T01:41:01.814Z,17.18
2022-08-27T01:43:29.284Z,16.91
2022-08-27T01:45:55.707Z,17.17
2022-08-27T01:48:22.606Z,16.39
2022-08-27T01:50:50.186Z,16.95
2022-08-27T01:53:23.258Z,17.18
2022-08-27T01:55:51.656Z,17.17
2022-08-27T01:58:21.030Z,17.13
2022-08-27T02:00:51.943Z,16.88
2022-08-27T02:03:22.905Z,17.13
2022-08-27T02:05:49.434Z,16.89
2022-08-27T02:08:17.577Z,17.15
2022-08-27T02:10:45.919Z,17.15
2022-08-27T02:13:13.413Z,17.14
2022-08-27T02:15:41.484Z,17.15
2022-08-27T02:18:09.753Z,17.07
2022-08-27T02:20:36.866Z,17.13
2022-08-27T02:23:04.675Z,17.08
2022-08-27T02:25:31.141Z,16.83
2022-08-27T02:28:00.140Z,17.08
2022-08-27T02:30:28.046Z,17.08
2022-08-27T02:32:54.443Z,16.82
2022-08-27T02:35:24.096Z,17.06
2022-08-27T02:37:51.613Z,16.29
2022-08-27T02:40:21.251Z,16.96
2022-08-27T02:42:47.860Z,17.03
2022-08-27T02:45:16.470Z,17.01
2022-08-27T02:47:43.378Z,16.70
2022-08-27T02:50:11.081Z,15.81
2022-08-27T02:52:37.836Z,16.81
2022-08-27T02:55:05.316Z,16.77
2022-08-27T02:57:36.661Z,16.47
2022-08-27T03:00:06.496Z,16.92
2022-08-27T03:02:33.033Z,16.94
2022-08-27T03:04:59.484Z,16.79
2022-08-27T03:07:25.944Z,16.99
2022-08-27T03:09:52.687Z,16.74
2022-08-27T03:12:19.382Z,16.37
2022-08-27T03:14:49.114Z,15.59
2022-08-27T03:17:34.506Z,16.97
2022-08-27T03:20:02.057Z,16.68
2022-08-27T03:22:28.502Z,16.57
2022-08-27T03:24:56.245Z,16.51
2022-08-27T03:27:22.879Z,16.91
2022-08-27T03:29:49.267Z,16.38
2022-08-27T03:32:15.681Z,16.20
2022-08-27T03:34:42.357Z,16.44
2022-08-27T03:37:08.779Z,16.86
2022-08-27T03:39:35.164Z,16.84
2022-08-27T03:42:01.554Z,16.47
2022-08-27T03:44:27.977Z,16.19
2022-08-27T03:46:55.016Z,16.61
2022-08-27T03:49:22.291Z,16.46
2022-08-27T03:51:52.659Z,16.42
2022-08-27T03:54:19.095Z,16.41
2022-08-27T03:56:45.526Z,16.30
2022-08-27T03:59:11.966Z,16.49
2022-08-27T04:01:38.658Z,16.82
2022-08-27T04:04:05.147Z,16.35
2022-08-27T04:06:33.253Z,16.20
2022-08-27T04:09:00.224Z,16.51
2022-08-27T04:11:29.374Z,16.36
2022-08-27T04:13:56.945Z,16.33
2022-08-27T04:16:23.408Z,16.39
2022-08-27T04:18:49.871Z,15.60
2022-08-27T04:21:16.225Z,16.60
2022-08-27T04:23:43.151Z,16.86
2022-08-27T04:26:11.225Z,16.90
2022-08-27T04:28:39.226Z,16.90
2022-08-27T04:31:12.962Z,16.71
2022-08-27T04:33:51.381Z,16.91
2022-08-27T04:36:18.304Z,16.65
2022-08-27T04:38:44.721Z,16.35
2022-08-27T04:41:21.246Z,16.66
2022-08-27T04:43:56.997Z,16.82
2022-08-27T04:46:30.979Z,16.89
2022-08-27T04:48:59.651Z,16.38
2022-08-27T04:51:28.882Z,16.81
2022-08-27T04:53:56.374Z,16.37
2022-08-27T04:56:26.377Z,16.67
2022-08-27T04:58:53.218Z,16.41
2022-08-27T05:01:23.093Z,16.65
2022-08-27T05:03:49.905Z,16.63
2022-08-27T05:06:17.405Z,16.49
2022-08-27T05:08:44.240Z,16.04
2022-08-27T05:11:14.974Z,16.22
2022-08-27T05:13:42.588Z,16.34
2022-08-27T05:16:12.605Z,16.34
2022-08-27T05:18:41.713Z,16.32
2022-08-27T05:21:24.170Z,16.25
2022-08-27T05:23:51.433Z,16.25
2022-08-27T05:26:18.405Z,16.00
2022-08-27T05:28:47.606Z,15.33
2022-08-27T05:31:15.319Z,15.65
2022-08-27T05:33:43.191Z,16.17
2022-08-27T05:36:20.552Z,15.60
2022-08-27T05:38:49.252Z,15.72
2022-08-27T05:41:19.373Z,16.11
2022-08-27T05:43:49.933Z,16.09
2022-08-27T05:46:20.248Z,16.09
2022-08-27T05:48:48.498Z,16.17
2022-08-27T05:51:16.320Z,16.24
2022-08-27T05:54:02.889Z,16.13
2022-08-27T05:56:34.457Z,16.04
2022-08-27T05:59:19.594Z,16.32
2022-08-27T06:01:49.252Z,16.28
2022-08-27T06:04:17.504Z,16.16
2022-08-27T06:06:45.487Z,16.01
2022-08-27T06:09:15.550Z,16.21
2022-08-27T06:11:42.050Z,16.25
2022-08-27T06:14:12.409Z,16.11
2022-08-27T06:16:40.486Z,16.20
2022-08-27T06:19:08.396Z,16.21
2022-08-27T06:21:35.125Z,15.90
2022-08-27T06:24:01.909Z,15.80
2022-08-27T06:26:28.664Z,15.90
2022-08-27T06:28:55.483Z,15.83
2022-08-27T06:31:27.396Z,16.14
2022-08-27T06:33:58.457Z,16.15
2022-08-27T06:36:30.088Z,15.58
2022-08-27T06:38:57.347Z,16.04
2022-08-27T06:41:26.651Z,16.23
2022-08-27T06:43:54.754Z,16.17
2022-08-27T06:46:23.773Z,15.77
2022-08-27T06:48:54.887Z,16.09
2022-08-27T06:51:26.049Z,16.14
2022-08-27T06:53:54.989Z,15.81
2022-08-27T06:56:22.486Z,16.21
2022-08-27T06:58:53.394Z,16.17
2022-08-27T07:01:24.203Z,15.86
2022-08-27T07:03:50.981Z,16.15
2022-08-27T07:06:18.202Z,16.20
2022-08-27T07:08:53.190Z,16.23
2022-08-27T07:11:20.539Z,16.46
2022-08-27T07:13:48.246Z,16.48
2022-08-27T07:16:17.774Z,16.54
2022-08-27T07:18:44.782Z,16.08
2022-08-27T07:21:12.207Z,16.09
2022-08-27T07:23:42.033Z,16.53
2022-08-27T07:26:11.379Z,16.68
2022-08-27T07:28:39.345Z,16.69
2022-08-27T07:31:09.107Z,16.46
2022-08-27T07:33:37.106Z,16.87
2022-08-27T07:36:05.937Z,16.56
2022-08-27T07:38:33.057Z,16.51
2022-08-27T07:40:59.636Z,16.50
2022-08-27T07:43:44.781Z,16.39
2022-08-27T07:46:11.259Z,16.68
2022-08-27T07:48:37.923Z,17.14
2022-08-27T07:51:08.405Z,17.18
2022-08-27T07:53:34.771Z,16.94
2022-08-27T07:56:05.997Z,17.23
2022-08-27T07:58:32.622Z,17.29
2022-08-27T08:00:59.224Z,17.06
2022-08-27T08:03:25.959Z,17.26
2022-08-27T08:05:53.356Z,16.85
2022-08-27T08:08:21.468Z,17.04
2022-08-27T08:10:48.777Z,17.32
2022-08-27T08:13:16.997Z,16.91
2022-08-27T08:15:46.202Z,17.55
2022-08-27T08:18:13.653Z,17.70
2022-08-27T08:20:57.086Z,17.55
2022-08-27T08:23:24.424Z,17.32
2022-08-27T08:25:50.838Z,17.39
2022-08-27T08:28:17.213Z,17.76
2022-08-27T08:30:47.667Z,17.77
2022-08-27T08:33:14.082Z,17.50
2022-08-27T08:35:41.481Z,17.75
2022-08-27T08:38:08.851Z,18.21
2022-08-27T08:40:56.045Z,18.15
2022-08-27T08:43:40.010Z,17.94
2022-08-27T08:47:01.622Z,17.94
2022-08-27T08:49:45.001Z,17.86
2022-08-27T08:52:30.544Z,18.35
2022-08-27T08:55:29.061Z,18.25
2022-08-27T08:58:12.430Z,17.92
2022-08-27T09:00:42.162Z,17.90
2022-08-27T09:03:12.209Z,17.94
2022-08-27T09:05:43.555Z,18.30
2022-08-27T09:08:41.325Z,17.99
2022-08-27T09:11:22.874Z,18.37
2022-08-27T09:13:57.538Z,18.35
2022-08-27T09:16:24.304Z,17.93
2022-08-27T09:18:52.631Z,17.97
2022-08-27T09:21:51.260Z,18.58
2022-08-27T09:24:52.764Z,18.70
2022-08-27T09:27:21.019Z,18.44
2022-08-27T09:29:53.378Z,17.85
2022-08-27T09:32:31.386Z,18.77
2022-08-27T09:35:00.027Z,18.69
2022-08-27T09:37:33.916Z,18.54
2022-08-27T09:40:23.105Z,18.53
2022-08-27T09:42:57.137Z,18.68
2022-08-27T09:45:27.301Z,18.37
2022-08-27T09:48:03.920Z,18.64
2022-08-27T09:50:59.059Z,18.74
2022-08-27T09:53:57.520Z,18.69
2022-08-27T09:56:26.508Z,18.82
2022-08-27T09:59:00.028Z,18.42
2022-08-27T10:01:29.467Z,18.88
2022-08-27T10:04:14.970Z,18.51
2022-08-27T10:06:47.596Z,18.31
2022-08-27T10:09:47.736Z,18.86
2022-08-27T10:12:26.818Z,18.57
2022-08-27T10:14:58.878Z,18.95
2022-08-27T10:17:25.304Z,19.09
2022-08-27T10:20:25.823Z,19.13
2022-08-27T10:23:05.945Z,19.24
2022-08-27T10:25:44.796Z,19.37
2022-08-27T10:28:38.786Z,19.05
2022-08-27T10:31:08.303Z,19.55
2022-08-27T10:33:39.605Z,19.26
2022-08-27T10:36:12.300Z,19.57
2022-08-27T10:38:44.988Z,19.18
2022-08-27T10:41:29.510Z,19.75
2022-08-27T10:43:55.836Z,19.90
2022-08-27T10:46:50.680Z,19.89
2022-08-27T10:49:26.101Z,19.44
2022-08-27T10:51:58.853Z,20.15
2022-08-27T10:54:54.501Z,19.97
2022-08-27T10:57:55.167Z,19.44
2022-08-27T11:00:25.068Z,20.32
2022-08-27T11:03:10.713Z,20.47
2022-08-27T11:05:46.439Z,19.92
2022-08-27T11:08:15.702Z,20.41
2022-08-27T11:10:54.393Z,20.14
2022-08-27T11:13:27.873Z,20.56
2022-08-27T11:15:56.528Z,20.39
2022-08-27T11:18:51.709Z,20.87
2022-08-27T11:21:25.261Z,21.06
2022-08-27T11:24:00.534Z,20.44
2022-08-27T11:26:31.652Z,21.21
2022-08-27T11:29:01.828Z,21.15
2022-08-27T11:31:36.983Z,21.40
2022-08-27T11:34:20.778Z,21.02
2022-08-27T11:37:04.633Z,21.48
2022-08-27T11:39:59.126Z,21.20
2022-08-27T11:42:39.425Z,20.78
2022-08-27T11:45:15.419Z,21.38
2022-08-27T11:47:54.658Z,21.38
2022-08-27T11:50:22.485Z,22.01
2022-08-27T11:53:26.650Z,22.04
2022-08-27T11:55:55.133Z,22.01
2022-08-27T11:58:21.790Z,22.63
2022-08-27T12:00:48.909Z,21.02
2022-08-27T12:03:21.329Z,21.88
2022-08-27T12:05:53.852Z,22.30
2022-08-27T12:08:23.989Z,22.23
2022-08-27T12:11:09.134Z,22.28
2022-08-27T12:13:56.692Z,21.96
2022-08-27T12:16:46.877Z,22.42
2022-08-27T12:19:31.277Z,22.33
2022-08-27T12:22:07.428Z,21.74
2022-08-27T12:24:56.070Z,21.38
2022-08-27T12:27:24.352Z,22.30
2022-08-27T12:30:18.751Z,22.36
2022-08-27T12:32:48.432Z,22.62
2022-08-27T12:35:16.459Z,22.58
2022-08-27T12:37:48.332Z,22.46
2022-08-27T12:40:30.412Z,22.66
2022-08-27T12:43:17.854Z,22.28
2022-08-27T12:45:56.709Z,22.49
2022-08-27T12:48:36.822Z,22.77
2022-08-27T12:51:08.957Z,23.02
2022-08-27T12:53:47.728Z,23.17
2022-08-27T12:56:33.961Z,22.64
2022-08-27T12:59:07.893Z,22.72
2022-08-27T13:01:56.266Z,22.69
2022-08-27T13:04:28.638Z,22.78
2022-08-27T13:06:55.322Z,22.70
2022-08-27T13:09:38.010Z,22.64
2022-08-27T13:12:14.774Z,22.41
2022-08-27T13:14:41.696Z,22.32
2022-08-27T13:17:18.662Z,22.44
2022-08-27T13:19:51.096Z,22.27
2022-08-27T13:22:23.180Z,22.45
2022-08-27T13:24:53.770Z,22.40
2022-08-27T13:27:32.343Z,21.45
2022-08-27T13:30:22.978Z,22.42
2022-08-27T13:33:00.360Z,22.60
2022-08-27T13:35:26.969Z,21.79
2022-08-27T13:37:54.604Z,22.78
2022-08-27T13:40:37.727Z,22.79
2022-08-27T13:43:09.429Z,21.81
2022-08-27T13:45:38.805Z,22.86
2022-08-27T13:48:08.497Z,22.36
2022-08-27T13:50:36.707Z,22.23
2022-08-27T13:53:25.771Z,22.30
2022-08-27T13:55:54.628Z,22.34
2022-08-27T13:58:28.210Z,22.28
2022-08-27T14:01:06.689Z,22.25
2022-08-27T14:03:38.958Z,22.74
2022-08-27T14:06:05.885Z,22.83
2022-08-27T14:08:38.762Z,22.87
2022-08-27T14:11:09.632Z,22.93
2022-08-27T14:13:46.608Z,22.45
2022-08-27T14:16:23.960Z,22.20
2022-08-27T14:19:01.480Z,22.35
2022-08-27T14:21:27.885Z,22.60
2022-08-27T14:23:54.256Z,22.29
2022-08-27T14:26:20.821Z,22.17
2022-08-27T14:28:47.695Z,22.52
2022-08-27T14:31:14.483Z,22.35
2022-08-27T14:33:41.142Z,21.92
2022-08-27T14:36:08.884Z,22.41
2022-08-27T14:38:40.797Z,22.67
2022-08-27T14:41:08.594Z,21.91
2022-08-27T14:43:35.685Z,22.69
2022-08-27T14:46:02.915Z,22.78
2022-08-27T14:48:32.438Z,22.67
2022-08-27T14:51:02.155Z,22.34
2022-08-27T14:53:28.962Z,22.55
2022-08-27T14:55:58.769Z,22.36
2022-08-27T14:58:25.506Z,21.81
2022-08-27T15:00:52.096Z,21.71
2022-08-27T15:03:19.834Z,22.19
2022-08-27T15:05:46.201Z,22.37
2022-08-27T15:08:15.712Z,21.94
2022-08-27T15:10:42.854Z,21.60
2022-08-27T15:13:11.341Z,22.26
2022-08-27T15:15:38.862Z,22.37
2022-08-27T15:18:05.925Z,21.91
2022-08-27T15:20:32.728Z,21.96
2022-08-27T15:22:59.179Z,22.11
2022-08-27T15:25:25.621Z,22.00
2022-08-27T15:27:52.206Z,22.49
2022-08-27T15:30:25.429Z,22.19
2022-08-27T15:32:51.834Z,21.29
2022-08-27T15:35:23.201Z,22.22
2022-08-27T15:37:49.739Z,21.63
2022-08-27T15:40:18.330Z,21.69
2022-08-27T15:42:46.957Z,22.07
2022-08-27T15:45:14.438Z,22.08
2022-08-27T15:47:40.852Z,21.96
2022-08-27T15:50:08.079Z,22.02
2022-08-27T15:55:14.881Z,21.86
2022-08-27T15:57:41.318Z,21.92
2022-08-27T16:00:08.977Z,21.64
2022-08-27T16:02:35.497Z,21.77
2022-08-27T16:05:02.049Z,21.63
2022-08-27T16:07:28.532Z,21.77
2022-08-27T16:09:54.950Z,20.21
2022-08-27T16:12:22.412Z,21.60
2022-08-27T16:14:53.645Z,21.51
2022-08-27T16:17:21.224Z,20.62
2022-08-27T16:19:47.818Z,21.50
2022-08-27T16:22:16.130Z,21.25
2022-08-27T16:24:42.855Z,21.42
2022-08-27T16:27:09.750Z,21.42
2022-08-27T16:29:37.042Z,21.56
2022-08-27T16:32:03.832Z,20.50
2022-08-27T16:34:31.017Z,21.38
2022-08-27T16:36:57.388Z,20.79
2022-08-27T16:39:23.819Z,20.67
2022-08-27T16:41:50.327Z,21.26
2022-08-27T16:44:17.586Z,21.29
2022-08-27T16:46:44.128Z,20.64
2022-08-27T16:49:29.846Z,20.96
2022-08-27T16:51:56.321Z,20.81
2022-08-27T16:54:22.924Z,20.71
2022-08-27T16:56:49.737Z,20.83
2022-08-27T16:59:16.514Z,20.74
2022-08-27T17:01:43.613Z,20.70
2022-08-27T17:04:18.418Z,21.05
2022-08-27T17:06:51.665Z,21.02
2022-08-27T17:09:19.043Z,20.90
2022-08-27T17:11:50.799Z,21.00
2022-08-27T17:14:17.156Z,20.98
2022-08-27T17:16:43.864Z,20.69
2022-08-27T17:19:16.688Z,20.88
2022-08-27T17:21:47.628Z,20.44
2022-08-27T17:24:14.003Z,20.82
2022-08-27T17:26:40.379Z,20.20
2022-08-27T17:29:07.088Z,20.78
2022-08-27T17:31:36.844Z,20.21
2022-08-27T17:34:04.377Z,19.89
2022-08-27T17:36:32.036Z,20.42
2022-08-27T17:38:59.983Z,20.25
2022-08-27T17:41:33.837Z,19.78
2022-08-27T17:44:04.592Z,20.58
2022-08-27T17:46:31.146Z,20.56
2022-08-27T17:48:57.853Z,19.10
2022-08-27T17:51:24.320Z,20.02
2022-08-27T17:53:57.223Z,20.08
2022-08-27T17:56:26.855Z,20.08
2022-08-27T17:58:54.034Z,19.44
2022-08-27T18:01:28.366Z,20.45
2022-08-27T18:03:56.683Z,19.91
2022-08-27T18:06:23.549Z,20.09
2022-08-27T18:08:49.945Z,19.88
2022-08-27T18:11:16.620Z,19.95
2022-08-27T18:13:43.221Z,20.24
2022-08-27T18:16:09.898Z,20.03
2022-08-27T18:18:36.272Z,19.57
2022-08-27T18:21:02.703Z,20.13
2022-08-27T18:23:29.174Z,19.89
2022-08-27T18:25:56.400Z,19.61
2022-08-27T18:28:23.286Z,20.04
2022-08-27T18:30:50.592Z,18.85
2022-08-27T18:33:17.230Z,19.60
2022-08-27T18:35:43.700Z,19.38
2022-08-27T18:38:10.087Z,19.82
2022-08-27T18:40:45.960Z,19.93
2022-08-27T18:43:14.232Z,19.95
2022-08-27T18:45:40.703Z,19.69
2022-08-27T18:48:21.573Z,19.90
2022-08-27T18:50:56.974Z,19.64
2022-08-27T18:53:24.507Z,19.88
2022-08-27T18:55:51.596Z,19.86
2022-08-27T18:58:18.708Z,19.52
2022-08-27T19:00:48.537Z,19.73
2022-08-27T19:03:21.689Z,19.71
2022-08-27T19:05:48.801Z,19.86
2022-08-27T19:08:22.108Z,19.80
2022-08-27T19:10:48.549Z,19.80
2022-08-27T19:13:14.955Z,19.20
2022-08-27T19:15:46.365Z,19.78
2022-08-27T19:18:12.999Z,19.76
2022-08-27T19:20:39.514Z,19.27
2022-08-27T19:23:05.983Z,19.48
2022-08-27T19:25:32.612Z,19.18
2022-08-27T19:27:59.152Z,19.35
2022-08-27T19:30:25.581Z,19.83
2022-08-27T19:32:54.862Z,19.87
2022-08-27T19:35:24.466Z,19.31
2022-08-27T19:37:53.040Z,19.51
2022-08-27T19:40:21.751Z,19.94
2022-08-27T19:42:48.457Z,19.96
2022-08-27T19:45:14.897Z,19.96
2022-08-27T19:47:41.349Z,19.78
2022-08-27T19:50:08.417Z,19.57
2022-08-27T19:52:35.287Z,19.92
2022-08-27T19:55:15.556Z,19.91
2022-08-27T19:57:43.329Z,19.59
2022-08-27T20:00:12.533Z,19.64
2022-08-27T20:02:39.215Z,19.56
2022-08-27T20:05:17.977Z,19.79
2022-08-27T20:07:45.464Z,19.66
2022-08-27T20:10:11.942Z,19.87
2022-08-27T20:12:38.437Z,19.23
2022-08-27T20:15:06.733Z,19.81
2022-08-27T20:17:34.350Z,19.29
2022-08-27T20:20:01.080Z,19.63
2022-08-27T20:22:27.664Z,19.69
2022-08-27T20:24:54.057Z,19.63
2022-08-27T20:27:20.551Z,19.53
2022-08-27T20:29:47.054Z,19.62
2022-08-27T20:32:13.684Z,19.25
2022-08-27T20:34:40.349Z,19.40
2022-08-27T20:37:07.270Z,19.58
2022-08-27T20:39:34.130Z,19.36
2022-08-27T20:42:00.590Z,19.13
2022-08-27T20:44:27.052Z,19.54
2022-08-27T20:46:59.323Z,19.52
2022-08-27T20:49:27.868Z,19.42
2022-08-27T20:52:02.767Z,19.52
2022-08-27T20:54:31.424Z,19.08
2022-08-27T20:56:58.359Z,19.46
2022-08-27T20:59:43.507Z,19.28
2022-08-27T21:02:12.828Z,19.48
2022-08-27T21:04:47.560Z,19.46
2022-08-27T21:07:15.473Z,19.45
2022-08-27T21:09:55.744Z,19.31
2022-08-27T21:12:23.559Z,18.58
2022-08-27T21:14:50.003Z,19.23
2022-08-27T21:17:21.253Z,18.91
2022-08-27T21:19:47.645Z,19.19
2022-08-27T21:22:14.045Z,19.44
2022-08-27T21:24:40.478Z,19.22
2022-08-27T21:27:07.070Z,18.94
2022-08-27T21:29:33.982Z,18.92
2022-08-27T21:32:00.369Z,18.87
2022-08-27T21:34:28.151Z,19.33
2022-08-27T21:36:54.688Z,19.18
2022-08-27T21:39:21.141Z,18.82
2022-08-27T21:41:48.071Z,18.80
2022-08-27T21:44:14.585Z,18.93
2022-08-27T21:46:41.196Z,19.27
2022-08-27T21:49:08.012Z,19.17
2022-08-27T21:51:34.359Z,18.93
2022-08-27T21:54:00.819Z,19.25
2022-08-27T21:56:27.736Z,19.23
2022-08-27T21:58:54.136Z,19.00
2022-08-27T22:01:20.678Z,19.07
2022-08-27T22:03:50.654Z,19.25
2022-08-27T22:06:18.266Z,19.25
2022-08-27T22:08:44.961Z,19.21
2022-08-27T22:11:12.129Z,19.23
2022-08-27T22:13:39.137Z,18.98
2022-08-27T22:16:05.755Z,19.00
2022-08-27T22:18:32.389Z,19.12
2022-08-27T22:20:58.845Z,19.05
2022-08-27T22:23:25.877Z,19.00
2022-08-27T22:25:52.613Z,18.99
2022-08-27T22:28:19.109Z,19.22
2022-08-27T22:30:45.576Z,19.10
2022-08-27T22:33:13.228Z,18.76
2022-08-27T22:35:40.037Z,19.01
2022-08-27T22:38:07.148Z,19.13
2022-08-27T22:40:35.272Z,19.15
2022-08-27T22:43:01.935Z,18.97
2022-08-27T22:45:29.028Z,19.25
2022-08-27T22:47:55.830Z,18.98
2022-08-27T22:50:22.837Z,18.93
2022-08-27T22:52:50.101Z,19.25
2022-08-27T22:55:19.316Z,18.86
2022-08-27T22:57:51.337Z,19.20
2022-08-27T23:00:27.257Z,19.15
2022-08-27T23:02:53.986Z,19.14
2022-08-27T23:05:21.457Z,18.88
2022-08-27T23:07:48.824Z,19.09
2022-08-27T23:10:17.303Z,18.95
2022-08-27T23:12:45.908Z,18.68
2022-08-27T23:15:14.865Z,19.00
2022-08-27T23:17:41.244Z,18.97
2022-08-27T23:20:09.698Z,18.99
2022-08-27T23:22:37.446Z,18.33
2022-08-27T23:25:23.999Z,18.88
2022-08-27T23:27:50.374Z,18.25
2022-08-27T23:30:18.224Z,18.87
2022-08-27T23:32:48.862Z,18.28
2022-08-27T23:35:22.496Z,18.31
2022-08-27T23:37:50.291Z,18.78
2022-08-27T23:40:18.415Z,18.76
2022-08-27T23:42:45.877Z,18.74
2022-08-27T23:45:17.088Z,18.52
2022-08-27T23:47:43.516Z,18.70
2022-08-27T23:50:11.497Z,18.61
2022-08-27T23:52:39.209Z,18.54
2022-08-27T23:55:08.200Z,18.29
2022-08-27T23:57:34.643Z,18.58
